createdAt,value
2022-08-22T00:00:52.159Z,67.86
2022-08-22T00:03:00.350Z,63.50
2022-08-22T00:03:01.690Z,67.12
2022-08-22T00:03:03.228Z,64.27
2022-08-22T00:03:07.844Z,59.93
2022-08-22T00:06:09.581Z,68.07
2022-08-22T00:11:25.772Z,69.28
2022-08-22T00:16:42.605Z,70.02
2022-08-22T00:22:00.367Z,70.28
2022-08-22T00:27:10.132Z,70.72
2022-08-22T00:32:29.848Z,71.04
2022-08-22T00:37:43.477Z,71.11
2022-08-22T00:43:09.931Z,70.58
2022-08-22T00:48:32.911Z,70.11
2022-08-22T00:53:52.554Z,69.65
2022-08-22T00:59:23.806Z,69.21
2022-08-22T01:04:51.058Z,68.48
2022-08-22T01:10:20.479Z,67.64
2022-08-22T01:15:26.830Z,67.86
2022-08-22T01:20:43.723Z,67.70
2022-08-22T01:26:05.621Z,67.74
2022-08-22T01:31:32.524Z,67.53
2022-08-22T01:36:59.960Z,67.98
2022-08-22T01:42:39.255Z,68.38
2022-08-22T01:48:11.310Z,68.30
2022-08-22T01:53:22.917Z,68.60
2022-08-22T01:58:29.924Z,68.38
2022-08-22T02:03:57.019Z,68.83
2022-08-22T02:09:14.135Z,69.05
2022-08-22T02:14:46.824Z,69.45
2022-08-22T02:20:17.276Z,69.34
2022-08-22T02:25:28.407Z,69.49
2022-08-22T02:30:50.727Z,69.79
2022-08-22T02:36:01.523Z,69.82
2022-08-22T02:41:24.290Z,69.76
2022-08-22T02:46:55.738Z,70.00
2022-08-22T02:52:13.211Z,70.06
2022-08-22T02:57:22.966Z,70.15
2022-08-22T03:02:36.808Z,70.58
2022-08-22T03:07:43.908Z,70.73
2022-08-22T03:13:01.431Z,70.86
2022-08-22T03:18:06.079Z,71.11
2022-08-22T03:23:13.515Z,71.16
2022-08-22T03:28:22.115Z,71.31
2022-08-22T03:33:29.578Z,71.58
2022-08-22T03:38:34.191Z,72.01
2022-08-22T03:44:08.312Z,72.19
2022-08-22T03:49:35.315Z,72.13
2022-08-22T03:54:45.864Z,72.65
2022-08-22T04:00:10.562Z,73.00
2022-08-22T04:05:41.406Z,73.09
2022-08-22T04:11:19.129Z,73.34
2022-08-22T04:16:38.917Z,73.45
2022-08-22T04:21:58.258Z,73.77
2022-08-22T04:27:26.600Z,74.10
2022-08-22T04:32:45.112Z,74.29
2022-08-22T04:44:39.531Z,74.54
2022-08-22T04:49:54.852Z,74.63
2022-08-22T04:55:17.938Z,75.18
2022-08-22T05:00:20.412Z,75.10
2022-08-22T05:05:32.051Z,75.24
2022-08-22T05:10:40.583Z,74.92
2022-08-22T05:15:47.862Z,74.90
2022-08-22T05:20:51.587Z,74.90
2022-08-22T05:25:58.075Z,74.98
2022-08-22T05:31:09.400Z,75.09
2022-08-22T05:36:17.036Z,74.92
2022-08-22T05:41:26.073Z,75.32
2022-08-22T05:46:30.563Z,75.71
2022-08-22T05:51:59.995Z,76.01
2022-08-22T05:57:36.409Z,75.92
2022-08-22T06:03:15.517Z,75.63
2022-08-22T06:08:44.083Z,75.82
2022-08-22T06:14:03.630Z,75.72
2022-08-22T06:19:19.125Z,76.28
2022-08-22T06:24:26.231Z,75.93
2022-08-22T06:29:45.827Z,76.19
2022-08-22T06:34:49.109Z,76.05
2022-08-22T06:39:54.245Z,76.04
2022-08-22T06:45:08.660Z,76.23
2022-08-22T06:50:14.954Z,75.58
2022-08-22T06:55:17.513Z,75.62
2022-08-22T07:00:20.408Z,75.77
2022-08-22T07:05:28.399Z,75.86
2022-08-22T07:10:30.235Z,75.83
2022-08-22T07:15:40.298Z,75.76
2022-08-22T07:21:09.262Z,75.44
2022-08-22T07:26:41.180Z,75.61
2022-08-22T07:31:59.830Z,75.46
2022-08-22T07:37:12.279Z,75.14
2022-08-22T07:42:50.652Z,74.49
2022-08-22T07:48:01.578Z,73.31
2022-08-22T07:53:26.550Z,72.33
2022-08-22T07:58:33.849Z,72.34
2022-08-22T08:03:36.699Z,71.90
2022-08-22T08:08:43.063Z,71.07
2022-08-22T08:13:49.652Z,70.30
2022-08-22T08:18:54.656Z,69.58
2022-08-22T08:23:58.995Z,68.99
2022-08-22T08:29:03.901Z,68.16
2022-08-22T08:34:10.633Z,67.84
2022-08-22T08:39:43.451Z,66.54
2022-08-22T08:45:02.003Z,65.27
2022-08-22T08:50:22.566Z,64.07
2022-08-22T08:55:59.313Z,63.42
2022-08-22T09:01:02.159Z,62.92
2022-08-22T09:06:22.794Z,58.66
2022-08-22T09:11:59.879Z,57.22
2022-08-22T09:17:27.969Z,58.07
2022-08-22T09:23:10.094Z,57.03
2022-08-22T09:28:24.132Z,56.80
2022-08-22T09:33:41.101Z,57.13
2022-08-22T09:38:53.008Z,56.17
2022-08-22T09:44:05.381Z,56.98
2022-08-22T09:49:27.044Z,54.68
2022-08-22T09:54:48.762Z,54.12
2022-08-22T10:00:09.502Z,54.19
2022-08-22T10:05:40.421Z,53.54
2022-08-22T10:10:57.374Z,53.50
2022-08-22T10:16:26.725Z,54.97
2022-08-22T10:22:06.681Z,54.76
2022-08-22T10:27:20.568Z,51.66
2022-08-22T10:32:37.682Z,52.19
2022-08-22T10:37:48.163Z,50.96
2022-08-22T10:43:09.370Z,50.40
2022-08-22T10:48:11.043Z,49.88
2022-08-22T10:53:35.852Z,48.09
2022-08-22T10:58:46.499Z,46.43
2022-08-22T11:04:28.451Z,45.55
2022-08-22T11:10:01.591Z,45.92
2022-08-22T11:15:34.751Z,45.41
2022-08-22T11:20:55.600Z,44.07
2022-08-22T11:26:09.776Z,43.58
2022-08-22T11:31:31.729Z,43.08
2022-08-22T11:36:54.702Z,42.37
2022-08-22T11:42:05.844Z,41.27
2022-08-22T11:47:14.868Z,42.35
2022-08-22T11:52:42.794Z,40.99
2022-08-22T11:58:06.630Z,40.38
2022-08-22T12:03:18.745Z,41.17
2022-08-22T12:08:33.936Z,42.46
2022-08-22T12:13:52.011Z,40.91
2022-08-22T12:19:15.061Z,41.48
2022-08-22T12:24:32.722Z,41.48
2022-08-22T12:30:03.297Z,42.37
2022-08-22T12:35:34.617Z,43.07
2022-08-22T12:40:55.004Z,43.28
2022-08-22T12:46:18.621Z,42.67
2022-08-22T12:51:31.827Z,42.22
2022-08-22T12:57:00.514Z,43.25
2022-08-22T13:02:15.653Z,43.20
2022-08-22T13:07:29.063Z,42.09
2022-08-22T13:12:44.199Z,41.59
2022-08-22T13:17:46.595Z,43.41
2022-08-22T13:28:25.392Z,41.79
2022-08-22T13:33:35.200Z,41.21
2022-08-22T13:38:53.176Z,41.45
2022-08-22T13:44:25.058Z,41.72
2022-08-22T13:49:43.793Z,42.69
2022-08-22T13:54:54.202Z,42.87
2022-08-22T14:00:07.346Z,41.14
2022-08-22T14:05:16.825Z,40.61
2022-08-22T14:10:29.525Z,39.87
2022-08-22T14:15:46.325Z,40.18
2022-08-22T14:20:48.756Z,40.99
2022-08-22T14:25:51.626Z,41.42
2022-08-22T14:30:59.473Z,40.19
2022-08-22T14:36:13.529Z,40.84
2022-08-22T14:41:55.690Z,39.23
2022-08-22T14:47:08.396Z,38.19
2022-08-22T14:52:41.992Z,38.00
2022-08-22T14:57:50.709Z,38.39
2022-08-22T15:02:53.067Z,38.20
2022-08-22T15:07:59.457Z,37.94
2022-08-22T15:13:04.998Z,37.59
2022-08-22T15:18:28.123Z,37.56
2022-08-22T15:23:32.097Z,37.92
2022-08-22T15:28:55.223Z,37.84
2022-08-22T15:34:11.271Z,37.89
2022-08-22T15:39:38.234Z,38.06
2022-08-22T15:44:44.180Z,38.05
2022-08-22T15:50:02.570Z,38.57
2022-08-22T15:55:25.251Z,37.83
2022-08-22T16:00:30.696Z,37.41
2022-08-22T16:05:35.589Z,38.85
2022-08-22T16:10:41.636Z,38.53
2022-08-22T16:15:54.392Z,38.00
2022-08-22T16:20:58.291Z,37.90
2022-08-22T16:25:59.909Z,41.04
2022-08-22T16:31:29.694Z,41.49
2022-08-22T16:36:40.232Z,42.40
2022-08-22T16:41:43.681Z,42.65
2022-08-22T16:46:47.787Z,41.86
2022-08-22T16:52:20.416Z,42.69
2022-08-22T16:57:31.191Z,42.52
2022-08-22T17:03:09.728Z,43.19
2022-08-22T17:08:20.625Z,43.93
2022-08-22T17:14:04.611Z,43.87
2022-08-22T17:19:31.146Z,45.16
2022-08-22T17:24:41.516Z,44.93
2022-08-22T17:29:54.712Z,45.20
2022-08-22T17:35:01.791Z,45.54
2022-08-22T17:40:42.748Z,45.79
2022-08-22T17:45:56.599Z,46.19
2022-08-22T17:51:15.791Z,46.76
2022-08-22T17:56:31.809Z,47.04
2022-08-22T18:01:55.581Z,48.08
2022-08-22T18:07:19.309Z,48.16
2022-08-22T18:12:34.931Z,48.88
2022-08-22T18:17:51.026Z,48.70
2022-08-22T18:22:58.563Z,48.97
2022-08-22T18:28:14.317Z,49.19
2022-08-22T18:33:29.090Z,49.63
2022-08-22T18:38:51.871Z,49.97
2022-08-22T18:43:54.109Z,50.62
2022-08-22T18:49:14.701Z,51.14
2022-08-22T18:54:36.030Z,51.22
2022-08-22T18:59:54.183Z,51.36
2022-08-22T19:05:22.288Z,51.57
2022-08-22T19:10:49.289Z,51.88
2022-08-22T19:16:32.862Z,52.01
2022-08-22T19:21:55.175Z,52.18
2022-08-22T19:27:21.547Z,52.48
2022-08-22T19:32:45.186Z,52.62
2022-08-22T19:37:54.747Z,53.08
2022-08-22T19:43:16.373Z,53.36
2022-08-22T19:48:27.489Z,53.82
2022-08-22T19:53:56.385Z,53.98
2022-08-22T19:59:13.734Z,54.25
2022-08-22T20:04:46.734Z,54.79
2022-08-22T20:09:54.529Z,55.68
2022-08-22T20:14:57.142Z,56.37
2022-08-22T20:20:35.218Z,57.23
2022-08-22T20:25:50.227Z,57.95
2022-08-22T20:30:57.926Z,57.83
2022-08-22T20:36:05.180Z,58.40
2022-08-22T20:41:39.116Z,58.90
2022-08-22T20:47:00.363Z,59.23
2022-08-22T20:52:06.377Z,59.76
2022-08-22T20:57:19.829Z,60.15
2022-08-22T21:02:30.184Z,60.40
2022-08-22T21:07:41.911Z,60.48
2022-08-22T21:12:43.839Z,60.87
2022-08-22T21:17:45.478Z,60.77
2022-08-22T21:22:47.172Z,60.70
2022-08-22T21:27:49.123Z,60.46
2022-08-22T21:32:56.352Z,60.11
2022-08-22T21:37:59.969Z,59.79
2022-08-22T21:43:04.651Z,59.15
2022-08-22T21:48:30.963Z,58.92
2022-08-22T21:53:32.538Z,58.44
2022-08-22T21:58:36.757Z,57.96
2022-08-22T22:03:39.082Z,57.37
2022-08-22T22:08:40.799Z,57.11
2022-08-22T22:13:42.889Z,56.72
2022-08-22T22:18:44.515Z,56.75
2022-08-22T22:23:46.574Z,56.54
2022-08-22T22:28:49.048Z,56.64
2022-08-22T22:33:50.689Z,56.63
2022-08-22T22:38:53.649Z,56.54
2022-08-22T22:43:55.441Z,56.58
2022-08-22T22:48:57.704Z,56.47
2022-08-22T22:53:59.346Z,56.55
2022-08-22T22:59:12.619Z,56.25
2022-08-22T23:04:16.519Z,56.42
2022-08-22T23:09:18.131Z,56.35
2022-08-22T23:14:19.948Z,56.42
2022-08-22T23:19:21.630Z,56.45
2022-08-22T23:24:25.172Z,56.57
2022-08-22T23:29:26.855Z,56.83
2022-08-22T23:34:31.603Z,56.95
2022-08-22T23:39:34.842Z,57.22
2022-08-22T23:44:37.922Z,57.37
2022-08-22T23:49:40.734Z,57.47
2022-08-22T23:54:42.788Z,58.01
2022-08-22T23:59:57.724Z,58.81
